createdAt,value
2018-02-25T00:00:31.187Z,13.25
2018-02-25T00:03:02.663Z,7.32
2018-02-25T00:05:33.284Z,9.63
2018-02-25T00:08:05.022Z,10.70
2018-02-25T00:10:36.211Z,9.40
2018-02-25T00:13:06.763Z,13.35
2018-02-25T00:15:37.256Z,13.65
2018-02-25T00:18:08.377Z,12.13
2018-02-25T00:20:39.752Z,9.18
2018-02-25T00:23:10.908Z,10.88
2018-02-25T00:25:42.050Z,11.57
2018-02-25T00:28:13.611Z,12.13
2018-02-25T00:30:44.501Z,14.60
2018-02-25T00:33:15.001Z,11.88
2018-02-25T00:35:47.308Z,10.65
2018-02-25T00:38:17.915Z,12.73
2018-02-25T00:40:48.268Z,8.90
2018-02-25T00:43:19.407Z,11.25
2018-02-25T00:45:50.966Z,14.65
2018-02-25T00:48:21.922Z,8.55
2018-02-25T00:50:53.783Z,9.20
2018-02-25T00:53:25.824Z,9.48
2018-02-25T00:56:01.263Z,18.05
2018-02-25T00:58:43.549Z,7.72
2018-02-25T01:01:23.500Z,10.65
2018-02-25T01:04:03.193Z,9.30
2018-02-25T01:06:40.693Z,13.85
2018-02-25T01:09:18.889Z,9.23
2018-02-25T01:11:57.338Z,6.20
2018-02-25T01:14:36.682Z,6.62
2018-02-25T01:17:15.322Z,10.88
2018-02-25T01:19:53.727Z,15.85
2018-02-25T01:22:32.027Z,7.78
2018-02-25T01:25:10.414Z,10.30
2018-02-25T01:27:49.766Z,5.62
2018-02-25T01:30:28.173Z,24.25
2018-02-25T01:33:06.586Z,10.70
2018-02-25T01:35:44.996Z,14.95
2018-02-25T01:38:23.622Z,16.08
2018-02-25T01:41:02.142Z,12.50
2018-02-25T01:43:40.563Z,16.98
2018-02-25T01:46:18.985Z,20.48
2018-02-25T01:48:58.443Z,30.40
2018-02-25T01:51:36.751Z,43.78
2018-02-25T01:54:15.061Z,35.28
2018-02-25T01:56:53.718Z,32.53
2018-02-25T01:59:32.160Z,22.55
2018-02-25T02:02:11.538Z,26.73
2018-02-25T02:04:51.154Z,20.17
2018-02-25T02:07:29.773Z,21.10
2018-02-25T02:10:08.185Z,20.60
2018-02-25T02:12:48.205Z,15.82
2018-02-25T02:15:27.340Z,12.50
2018-02-25T02:18:07.792Z,17.25
2018-02-25T02:20:47.266Z,15.25
2018-02-25T02:23:28.732Z,15.75
2018-02-25T02:26:10.008Z,24.67
2018-02-25T02:28:50.714Z,17.60
2018-02-25T02:31:29.944Z,17.55
2018-02-25T02:34:11.284Z,10.27
2018-02-25T02:36:54.103Z,10.20
2018-02-25T02:39:36.384Z,17.80
2018-02-25T02:42:15.968Z,15.35
2018-02-25T02:44:55.210Z,16.33
2018-02-25T02:47:33.665Z,13.73
2018-02-25T02:50:13.109Z,17.85
2018-02-25T02:52:52.676Z,12.02
2018-02-25T02:55:33.211Z,14.13
2018-02-25T02:58:12.646Z,15.77
2018-02-25T03:00:52.009Z,10.90
2018-02-25T03:03:30.301Z,16.83
2018-02-25T03:06:08.623Z,14.43
2018-02-25T03:08:48.032Z,15.57
2018-02-25T03:11:28.623Z,27.02
2018-02-25T03:14:09.079Z,24.55
2018-02-25T03:16:49.628Z,22.90
2018-02-25T03:19:28.113Z,12.37
2018-02-25T03:22:06.610Z,13.13
2018-02-25T03:24:47.117Z,18.10
2018-02-25T03:27:26.435Z,18.75
2018-02-25T03:30:04.834Z,15.57
2018-02-25T03:32:44.158Z,15.60
2018-02-25T03:35:22.767Z,11.85
2018-02-25T03:38:01.671Z,14.48
2018-02-25T03:40:40.458Z,15.05
2018-02-25T03:43:18.776Z,15.93
2018-02-25T03:45:59.308Z,11.40
2018-02-25T03:48:38.949Z,13.90
2018-02-25T03:51:17.347Z,19.70
2018-02-25T03:53:58.306Z,14.73
2018-02-25T03:56:38.321Z,24.75
2018-02-25T03:59:16.517Z,18.50
2018-02-25T04:01:55.012Z,12.52
2018-02-25T04:04:35.485Z,20.25
2018-02-25T04:07:13.993Z,15.95
2018-02-25T04:09:52.377Z,18.12
2018-02-25T04:12:32.744Z,16.42
2018-02-25T04:15:13.137Z,26.15
2018-02-25T04:17:52.633Z,24.37
2018-02-25T04:20:30.938Z,21.75
2018-02-25T04:23:09.372Z,22.40
2018-02-25T04:25:46.868Z,18.33
2018-02-25T04:28:25.952Z,18.55
2018-02-25T04:31:04.824Z,20.37
2018-02-25T04:33:42.267Z,19.90
2018-02-25T04:36:20.653Z,19.85
2018-02-25T04:38:58.997Z,14.30
2018-02-25T04:41:39.420Z,22.95
2018-02-25T04:44:19.730Z,11.20
2018-02-25T04:49:44.464Z,32.35
2018-02-25T04:52:23.387Z,21.52
2018-02-25T04:55:03.954Z,23.40
2018-02-25T04:57:42.916Z,19.80
2018-02-25T05:00:21.336Z,21.08
2018-02-25T05:03:01.903Z,31.27
2018-02-25T05:05:41.273Z,35.78
2018-02-25T05:08:19.557Z,37.90
2018-02-25T05:10:59.025Z,38.65
2018-02-25T05:13:37.376Z,22.20
2018-02-25T05:16:15.853Z,23.55
2018-02-25T05:18:52.761Z,26.40
2018-02-25T05:21:31.532Z,24.70
2018-02-25T05:24:09.971Z,18.10
2018-02-25T05:26:48.410Z,15.85
2018-02-25T05:29:26.554Z,24.05
2018-02-25T05:32:05.489Z,25.65
2018-02-25T05:34:43.778Z,17.85
2018-02-25T05:37:22.314Z,22.17
2018-02-25T05:40:01.670Z,22.33
2018-02-25T05:42:40.124Z,20.17
2018-02-25T05:45:18.593Z,26.08
2018-02-25T05:47:57.206Z,20.35
2018-02-25T05:50:35.634Z,21.62
2018-02-25T05:53:14.210Z,24.58
2018-02-25T05:55:52.310Z,27.13
2018-02-25T05:58:34.078Z,38.17
2018-02-25T06:01:13.561Z,30.30
2018-02-25T06:03:51.928Z,19.40
2018-02-25T06:06:30.407Z,23.25
2018-02-25T06:09:08.860Z,20.62
2018-02-25T06:11:47.218Z,24.33
2018-02-25T06:14:26.657Z,18.95
2018-02-25T06:17:05.996Z,24.10
2018-02-25T06:19:44.512Z,17.48
2018-02-25T06:22:23.070Z,19.80
2018-02-25T06:25:01.195Z,30.75
2018-02-25T06:27:41.600Z,14.85
2018-02-25T06:30:21.066Z,17.62
2018-02-25T06:32:59.476Z,27.83
2018-02-25T06:35:37.941Z,18.48
2018-02-25T06:38:16.401Z,20.48
2018-02-25T06:40:54.814Z,21.00
2018-02-25T06:43:33.335Z,24.48
2018-02-25T06:46:12.770Z,18.37
2018-02-25T06:48:51.355Z,21.58
2018-02-25T06:51:29.806Z,23.87
2018-02-25T06:54:08.143Z,22.33
2018-02-25T06:56:46.572Z,33.33
2018-02-25T06:59:26.216Z,20.23
2018-02-25T07:02:04.523Z,16.73
2018-02-25T07:04:42.825Z,27.62
2018-02-25T07:07:22.048Z,29.98
2018-02-25T07:10:00.506Z,25.40
2018-02-25T07:12:38.950Z,27.37
2018-02-25T07:15:17.361Z,24.77
2018-02-25T07:17:56.925Z,28.90
2018-02-25T07:20:36.557Z,19.75
2018-02-25T07:23:16.156Z,28.95
2018-02-25T07:25:54.663Z,28.12
2018-02-25T07:28:33.443Z,25.37
2018-02-25T07:31:11.818Z,16.48
2018-02-25T07:33:52.450Z,15.48
2018-02-25T07:36:31.170Z,14.45
2018-02-25T07:39:09.705Z,23.60
2018-02-25T07:41:48.262Z,18.05
2018-02-25T07:44:27.931Z,18.48
2018-02-25T07:47:06.332Z,19.50
2018-02-25T07:49:45.548Z,20.88
2018-02-25T07:52:24.364Z,30.17
2018-02-25T07:55:02.612Z,21.92
2018-02-25T07:57:41.021Z,20.92
2018-02-25T08:00:19.358Z,15.77
2018-02-25T08:02:59.627Z,15.68
2018-02-25T08:05:38.253Z,11.95
2018-02-25T08:08:17.651Z,24.95
2018-02-25T08:10:56.022Z,14.93
2018-02-25T08:13:34.514Z,21.75
2018-02-25T08:16:12.897Z,26.50
2018-02-25T08:18:51.536Z,20.95
2018-02-25T08:21:33.114Z,17.95
2018-02-25T08:24:13.431Z,21.23
2018-02-25T08:26:53.938Z,21.48
2018-02-25T08:29:35.416Z,20.62
2018-02-25T08:32:15.976Z,25.95
2018-02-25T08:34:55.256Z,24.48
2018-02-25T08:37:35.574Z,18.85
2018-02-25T08:40:17.062Z,23.02
2018-02-25T08:42:56.522Z,21.42
2018-02-25T08:45:34.847Z,21.10
2018-02-25T08:48:14.421Z,21.70
2018-02-25T08:50:53.977Z,24.95
2018-02-25T08:53:33.245Z,17.48
2018-02-25T08:56:12.712Z,20.45
2018-02-25T08:58:54.102Z,15.95
2018-02-25T09:01:32.759Z,27.48
2018-02-25T09:04:13.321Z,19.75
2018-02-25T09:06:52.885Z,20.37
2018-02-25T09:09:31.301Z,17.17
2018-02-25T09:12:09.802Z,16.83
2018-02-25T09:14:48.461Z,14.40
2018-02-25T09:17:28.964Z,15.77
2018-02-25T09:20:08.450Z,19.00
2018-02-25T09:22:47.921Z,17.52
2018-02-25T09:25:26.396Z,23.38
2018-02-25T09:28:04.772Z,19.10
2018-02-25T09:30:43.101Z,21.87
2018-02-25T09:33:22.576Z,18.27
2018-02-25T09:36:00.908Z,24.30
2018-02-25T09:38:44.422Z,23.45
2018-02-25T09:41:23.013Z,15.38
2018-02-25T09:44:01.423Z,17.23
2018-02-25T09:46:39.684Z,17.52
2018-02-25T09:49:18.108Z,17.33
2018-02-25T09:51:56.633Z,26.27
2018-02-25T09:54:35.290Z,20.08
2018-02-25T09:57:17.739Z,17.90
2018-02-25T09:59:59.180Z,14.25
2018-02-25T10:02:37.552Z,16.87
2018-02-25T10:05:17.028Z,17.23
2018-02-25T10:07:57.478Z,15.48
2018-02-25T10:10:34.844Z,19.45
2018-02-25T10:13:13.369Z,16.45
2018-02-25T10:15:51.696Z,15.95
2018-02-25T10:18:31.050Z,21.08
2018-02-25T10:21:09.522Z,20.10
2018-02-25T10:23:48.988Z,19.80
2018-02-25T10:26:28.301Z,15.55
2018-02-25T10:29:06.791Z,12.85
2018-02-25T10:31:46.221Z,18.67
2018-02-25T10:34:23.750Z,19.35
2018-02-25T10:37:02.251Z,13.00
2018-02-25T10:39:40.839Z,13.77
2018-02-25T10:42:20.891Z,12.65
2018-02-25T10:45:00.887Z,20.23
2018-02-25T10:47:39.485Z,16.55
2018-02-25T10:50:17.954Z,19.80
2018-02-25T10:52:56.613Z,16.40
2018-02-25T10:55:36.959Z,22.90
2018-02-25T10:58:15.424Z,18.80
2018-02-25T11:01:01.070Z,20.00
2018-02-25T11:03:39.398Z,14.05
2018-02-25T11:06:18.795Z,16.15
2018-02-25T11:08:57.334Z,19.65
2018-02-25T11:11:35.637Z,11.95
2018-02-25T11:14:13.908Z,15.32
2018-02-25T11:16:52.689Z,21.83
2018-02-25T11:19:33.281Z,16.23
2018-02-25T11:22:11.758Z,26.05
2018-02-25T11:24:52.750Z,22.58
2018-02-25T11:27:31.795Z,17.20
2018-02-25T11:30:10.180Z,15.30
2018-02-25T11:32:48.571Z,20.42
2018-02-25T11:35:25.879Z,20.98
2018-02-25T11:38:06.350Z,16.58
2018-02-25T11:40:44.768Z,19.65
2018-02-25T11:43:26.266Z,19.30
2018-02-25T11:46:05.426Z,18.62
2018-02-25T11:48:44.718Z,16.30
2018-02-25T11:51:21.972Z,17.52
2018-02-25T11:54:00.231Z,23.48
2018-02-25T11:56:39.570Z,20.30
2018-02-25T11:59:18.916Z,19.17
2018-02-25T12:01:58.341Z,21.58
2018-02-25T12:04:37.839Z,28.40
2018-02-25T12:07:16.113Z,22.90
2018-02-25T12:09:54.481Z,19.77
2018-02-25T12:12:33.006Z,29.25
2018-02-25T12:15:11.364Z,14.38
2018-02-25T12:17:52.270Z,17.00
2018-02-25T12:20:31.258Z,19.58
2018-02-25T12:23:09.735Z,21.95
2018-02-25T12:25:47.021Z,32.97
2018-02-25T12:28:25.439Z,24.35
2018-02-25T12:31:05.771Z,20.30
2018-02-25T12:33:46.177Z,24.92
2018-02-25T12:36:25.683Z,16.58
2018-02-25T12:39:07.171Z,17.75
2018-02-25T12:41:45.550Z,18.62
2018-02-25T12:44:26.990Z,20.10
2018-02-25T12:47:05.531Z,24.02
2018-02-25T12:49:45.024Z,25.20
2018-02-25T12:52:23.405Z,22.37
2018-02-25T12:55:03.776Z,28.77
2018-02-25T12:57:41.266Z,23.60
2018-02-25T13:00:21.877Z,15.50
2018-02-25T13:03:00.217Z,21.33
2018-02-25T13:05:38.766Z,16.98
2018-02-25T13:08:17.287Z,18.87
2018-02-25T13:10:55.547Z,14.77
2018-02-25T13:13:34.215Z,18.95
2018-02-25T13:16:14.677Z,26.83
2018-02-25T13:18:53.042Z,26.30
2018-02-25T13:21:33.472Z,16.83
2018-02-25T13:24:11.902Z,14.55
2018-02-25T13:26:53.160Z,19.55
2018-02-25T13:29:33.377Z,17.58
2018-02-25T13:32:13.947Z,21.73
2018-02-25T13:34:52.387Z,16.50
2018-02-25T13:37:30.803Z,15.45
2018-02-25T13:40:09.444Z,22.52
2018-02-25T13:42:47.848Z,15.05
2018-02-25T13:45:27.063Z,14.77
2018-02-25T13:48:05.738Z,18.35
2018-02-25T13:50:45.226Z,12.43
2018-02-25T13:53:23.639Z,20.10
2018-02-25T13:56:02.141Z,16.25
2018-02-25T13:58:40.557Z,16.75
2018-02-25T14:01:19.132Z,13.75
2018-02-25T14:03:57.620Z,18.05
2018-02-25T14:06:36.212Z,13.70
2018-02-25T14:09:15.690Z,18.27
2018-02-25T14:11:56.030Z,13.55
2018-02-25T14:14:33.435Z,15.00
2018-02-25T14:17:11.794Z,15.27
2018-02-25T14:19:50.140Z,17.02
2018-02-25T14:22:28.524Z,17.30
2018-02-25T14:25:06.916Z,13.18
2018-02-25T14:27:46.511Z,12.75
2018-02-25T14:30:25.060Z,17.33
2018-02-25T14:33:05.402Z,15.25
2018-02-25T14:35:45.095Z,18.25
2018-02-25T14:38:23.570Z,12.95
2018-02-25T14:41:02.901Z,18.70
2018-02-25T14:43:41.512Z,11.18
2018-02-25T14:46:20.003Z,13.25
2018-02-25T14:48:58.309Z,11.27
2018-02-25T14:51:36.860Z,12.25
2018-02-25T14:54:15.326Z,11.50
2018-02-25T14:56:55.864Z,11.10
2018-02-25T14:59:34.372Z,9.85
2018-02-25T15:02:14.985Z,9.25
2018-02-25T15:04:53.521Z,10.57
2018-02-25T15:07:31.951Z,8.10
2018-02-25T15:10:11.284Z,13.27
2018-02-25T15:12:50.850Z,10.70
2018-02-25T15:15:29.348Z,12.20
2018-02-25T15:18:10.218Z,18.98
2018-02-25T15:20:48.234Z,11.73
2018-02-25T15:23:27.847Z,7.20
2018-02-25T15:26:06.345Z,6.45
2018-02-25T15:28:44.600Z,15.88
2018-02-25T15:31:26.859Z,7.35
2018-02-25T15:34:06.618Z,8.63
2018-02-25T15:36:47.120Z,18.58
2018-02-25T15:39:25.545Z,5.32
2018-02-25T15:42:03.903Z,12.05
2018-02-25T15:44:42.552Z,7.30
2018-02-25T15:47:21.036Z,8.27
2018-02-25T15:49:59.335Z,7.32
2018-02-25T15:52:39.795Z,7.72
2018-02-25T15:55:18.323Z,7.93
2018-02-25T15:57:56.975Z,8.18
2018-02-25T16:00:37.730Z,6.28
2018-02-25T16:03:15.794Z,12.07
2018-02-25T16:05:54.287Z,11.20
2018-02-25T16:08:32.859Z,12.18
2018-02-25T16:11:10.291Z,7.18
2018-02-25T16:13:49.284Z,14.57
2018-02-25T16:16:27.462Z,4.07
2018-02-25T16:19:07.915Z,11.12
2018-02-25T16:21:47.479Z,8.60
2018-02-25T16:24:25.982Z,7.72
2018-02-25T16:27:04.267Z,8.20
2018-02-25T16:29:43.528Z,5.40
2018-02-25T16:32:23.075Z,8.40
2018-02-25T16:35:03.568Z,7.87
2018-02-25T16:37:41.995Z,6.00
2018-02-25T16:40:22.687Z,7.57
2018-02-25T16:43:01.070Z,12.30
2018-02-25T16:45:39.511Z,5.12
2018-02-25T16:48:17.955Z,12.13
2018-02-25T16:50:56.387Z,6.45
2018-02-25T16:53:34.744Z,6.20
2018-02-25T16:56:12.120Z,5.03
2018-02-25T16:58:51.652Z,5.93
2018-02-25T17:01:30.092Z,7.30
2018-02-25T17:04:08.319Z,6.68
2018-02-25T17:06:47.843Z,6.47
2018-02-25T17:09:28.061Z,5.32
2018-02-25T17:12:10.020Z,4.62
2018-02-25T17:14:49.935Z,7.85
2018-02-25T17:17:27.350Z,4.28
2018-02-25T17:20:07.014Z,3.85
2018-02-25T17:22:45.418Z,5.05
2018-02-25T17:25:26.038Z,6.12
2018-02-25T17:28:05.488Z,3.90
2018-02-25T17:30:43.906Z,4.78
2018-02-25T17:33:22.283Z,3.90
2018-02-25T17:36:00.706Z,6.68
2018-02-25T17:38:38.268Z,5.95
2018-02-25T17:41:19.848Z,8.10
2018-02-25T17:43:58.155Z,6.75
2018-02-25T17:46:37.627Z,4.97
2018-02-25T17:49:17.075Z,6.25
2018-02-25T17:51:55.435Z,7.60
2018-02-25T17:54:34.880Z,5.45
2018-02-25T17:57:12.224Z,4.65
2018-02-25T17:59:51.148Z,5.80
2018-02-25T18:02:29.958Z,6.82
2018-02-25T18:05:08.450Z,10.15
2018-02-25T18:07:47.554Z,6.05
2018-02-25T18:10:26.398Z,7.05
2018-02-25T18:13:04.863Z,4.72
2018-02-25T18:15:44.542Z,3.03
2018-02-25T18:18:23.047Z,4.70
2018-02-25T18:21:01.372Z,2.78
2018-02-25T18:23:41.620Z,4.78
2018-02-25T18:26:20.076Z,3.35
2018-02-25T18:28:58.634Z,3.97
2018-02-25T18:31:38.942Z,4.55
2018-02-25T18:34:18.038Z,2.00
2018-02-25T18:36:57.143Z,3.70
2018-02-25T18:39:35.864Z,3.47
2018-02-25T18:42:14.926Z,2.15
2018-02-25T18:44:53.803Z,4.05
2018-02-25T18:47:32.333Z,3.70
2018-02-25T18:50:14.666Z,7.05
2018-02-25T18:52:53.018Z,6.70
2018-02-25T18:55:31.521Z,8.27
2018-02-25T18:58:12.088Z,4.53
2018-02-25T19:00:52.917Z,3.53
2018-02-25T19:03:32.943Z,4.85
2018-02-25T19:06:10.367Z,3.42
2018-02-25T19:08:48.699Z,4.90
2018-02-25T19:11:27.274Z,7.62
2018-02-25T19:14:05.737Z,6.85
2018-02-25T19:16:43.965Z,4.65
2018-02-25T19:19:23.565Z,7.72
2018-02-25T19:22:02.077Z,2.95
2018-02-25T19:24:40.599Z,3.87
2018-02-25T19:27:18.947Z,8.77
2018-02-25T19:29:57.299Z,16.00
2018-02-25T19:32:36.793Z,9.43
2018-02-25T19:35:17.336Z,11.50
2018-02-25T19:38:01.888Z,8.00
2018-02-25T19:40:46.122Z,12.45
2018-02-25T19:43:25.449Z,5.28
2018-02-25T19:46:03.897Z,11.80
2018-02-25T19:48:41.383Z,7.53
2018-02-25T19:51:20.837Z,5.80
2018-02-25T19:53:59.207Z,6.20
2018-02-25T19:56:38.724Z,10.48
2018-02-25T19:59:19.292Z,4.35
2018-02-25T20:01:57.679Z,3.00
2018-02-25T20:04:36.390Z,2.55
2018-02-25T20:07:16.862Z,3.50
2018-02-25T20:09:56.154Z,2.95
2018-02-25T20:12:34.614Z,5.87
2018-02-25T20:15:13.215Z,3.62
2018-02-25T20:17:54.747Z,4.45
2018-02-25T20:20:35.225Z,3.87
2018-02-25T20:23:13.622Z,4.03
2018-02-25T20:25:51.887Z,2.62
2018-02-25T20:28:30.548Z,3.30
2018-02-25T20:31:08.963Z,3.15
2018-02-25T20:33:48.410Z,3.35
2018-02-25T20:36:26.876Z,3.17
2018-02-25T20:39:06.375Z,2.28
2018-02-25T20:41:44.997Z,2.22
2018-02-25T20:44:23.493Z,2.10
2018-02-25T20:47:02.882Z,2.42
2018-02-25T20:49:42.297Z,2.85
2018-02-25T20:52:20.791Z,6.43
2018-02-25T20:54:59.197Z,2.08
2018-02-25T20:57:37.669Z,3.62
2018-02-25T21:00:17.247Z,3.40
2018-02-25T21:02:55.570Z,4.78
2018-02-25T21:05:34.014Z,3.33
2018-02-25T21:08:13.166Z,2.30
2018-02-25T21:10:54.198Z,2.67
2018-02-25T21:13:32.678Z,2.20
2018-02-25T21:16:11.036Z,2.25
2018-02-25T21:18:49.744Z,1.50
2018-02-25T21:21:30.059Z,1.67
2018-02-25T21:24:08.498Z,2.47
2018-02-25T21:26:46.900Z,3.03
2018-02-25T21:29:26.236Z,1.75
2018-02-25T21:32:04.738Z,2.33
2018-02-25T21:34:43.403Z,3.28
2018-02-25T21:37:21.924Z,2.20
2018-02-25T21:40:00.348Z,1.85
2018-02-25T21:42:39.763Z,2.35
2018-02-25T21:45:17.411Z,2.47
2018-02-25T21:47:57.868Z,1.50
2018-02-25T21:50:36.362Z,2.50
2018-02-25T21:53:18.083Z,3.08
2018-02-25T21:56:02.940Z,5.60
2018-02-25T21:58:47.223Z,1.55
2018-02-25T22:01:32.840Z,2.05
2018-02-25T22:04:12.294Z,4.15
2018-02-25T22:06:50.191Z,4.43
2018-02-25T22:09:29.851Z,3.47
2018-02-25T22:12:10.409Z,2.90
2018-02-25T22:14:48.968Z,4.60
2018-02-25T22:17:27.605Z,3.70
2018-02-25T22:20:06.750Z,3.25
2018-02-25T22:22:47.139Z,3.70
2018-02-25T22:25:25.432Z,2.70
2018-02-25T22:28:03.906Z,3.70
2018-02-25T22:30:43.376Z,4.85
2018-02-25T22:33:22.232Z,3.05
2018-02-25T22:36:01.515Z,4.40
2018-02-25T22:38:44.946Z,2.87
2018-02-25T22:41:23.940Z,4.40
2018-02-25T22:44:02.506Z,2.40
2018-02-25T22:46:43.794Z,3.10
2018-02-25T22:49:23.471Z,5.20
2018-02-25T22:52:01.952Z,4.55
2018-02-25T22:54:40.468Z,2.65
2018-02-25T22:57:18.953Z,7.72
2018-02-25T22:59:58.475Z,3.75
2018-02-25T23:02:37.108Z,3.62
2018-02-25T23:05:15.720Z,5.70
2018-02-25T23:07:55.574Z,5.87
2018-02-25T23:10:34.000Z,12.18
2018-02-25T23:13:13.559Z,9.85
2018-02-25T23:18:37.936Z,2.83
2018-02-25T23:21:18.164Z,2.62
2018-02-25T23:23:57.045Z,5.70
2018-02-25T23:26:34.608Z,3.03
2018-02-25T23:29:16.209Z,3.83
2018-02-25T23:31:54.599Z,4.45
2018-02-25T23:34:34.272Z,4.30
2018-02-25T23:37:13.865Z,6.10
2018-02-25T23:39:52.295Z,4.68
2018-02-25T23:42:34.800Z,5.30
2018-02-25T23:45:14.308Z,3.65
2018-02-25T23:47:53.821Z,5.70
2018-02-25T23:50:36.229Z,4.87
2018-02-25T23:53:14.565Z,10.88
2018-02-25T23:55:52.973Z,6.82
2018-02-25T23:58:31.341Z,5.95
